Time;durP1;ratioP1;P1;durP2;ratioP2;P2;SDS_P1;SDS_P2;PMS_P1;PMS_P2;Temp;Humidity;BMP_temperature;BMP_pressure;BME280_temperature;BME280_humidity;BME280_pressure;Samples;Min_cycle;Max_cycle;Signal;HPM_P1;HPM_P2
2022/05/04 04:53:01;;;;;;;;;;;;;;;15.94;67.95;96904.69;4264844;27;10198;-68
2022/05/04 04:55:03;;;;;;;;;;;;;;;16.17;67.40;96912.00;4249347;27;5724;-67
2022/05/04 04:57:05;;;;;;;;;;;;;;;16.34;67.13;96906.06;4247395;27;5641;-67
2022/05/04 04:59:07;;;;;;;;;;;;;;;16.46;67.23;96904.25;4252395;27;5665;-67
2022/05/04 05:01:08;;;;;;;;;;;;;;;16.61;66.64;96912.63;4245483;27;5827;-67
2022/05/04 05:03:11;;;;;;;;;;;;;;;16.71;66.39;96906.75;4247488;27;5664;-67
2022/05/04 05:05:12;;;;;;;;;;;;;;;16.78;66.34;96902.97;4249166;27;5737;-67
2022/05/04 05:07:14;;;;;;;;;;;;;;;16.85;66.15;96908.97;4230385;27;6411;-68
2022/05/04 05:09:16;;;;;;;;;;;;;;;16.93;65.84;96912.38;4241680;27;5584;-67
2022/05/04 05:11:17;;;;;;;;;;;;;;;16.97;65.72;96917.00;4234843;27;5665;-67
2022/05/04 05:13:19;;;;;;;;;;;;;;;17.01;65.48;96910.19;4247802;27;5731;-67
2022/05/04 05:17:41;;;;;;;;;;;;;;;17.08;65.20;96907.38;4240761;27;5091;-67
2022/05/04 05:19:42;;;;;;;;;;;;;;;17.12;64.98;96909.38;4245207;27;5736;-67
2022/05/04 05:21:44;;;;;;;;;;;;;;;17.17;64.93;96914.03;4233252;27;5670;-67
2022/05/04 05:23:46;;;;;;;;;;;;;;;17.21;64.79;96911.69;4241827;27;5638;-67
2022/05/04 05:25:48;;;;;;;;;;;;;;;17.25;64.59;96915.53;4248188;27;5685;-66
2022/05/04 05:27:50;;;;;;;;;;;;;;;17.29;64.42;96917.50;4247704;27;6329;-66
2022/05/04 05:29:51;;;;;;;;;;;;;;;17.33;64.39;96921.34;4247173;27;5725;-67
2022/05/04 05:31:54;;;;;;;;;;;;;;;17.34;64.34;96914.16;4247272;27;5753;-67
2022/05/04 05:33:55;;;;;;;;;;;;;;;17.35;64.42;96915.78;4249841;27;5637;-67
2022/05/04 05:35:57;;;;;;;;;;;;;;;17.36;64.52;96923.56;4246964;27;5660;-67
2022/05/04 05:37:58;;;;;;;;;;;;;;;17.40;64.22;96922.03;4246180;27;5637;-67
2022/05/04 05:40:00;;;;;;;;;;;;;;;17.45;63.86;96930.19;4247072;27;5605;-67
2022/05/04 05:42:02;;;;;;;;;;;;;;;17.49;63.87;96922.50;4238982;27;5725;-66
2022/05/04 05:44:04;;;;;;;;;;;;;;;17.54;63.56;96921.78;4246812;27;6738;-66
2022/05/04 05:46:06;;;;;;;;;;;;;;;17.59;63.51;96919.25;4246931;27;5724;-65
2022/05/04 05:48:07;;;;;;;;;;;;;;;17.65;63.14;96923.63;4247773;27;5645;-66
2022/05/04 05:50:11;;;;;;;;;;;;;;;17.72;62.94;96921.69;4247327;27;5657;-66
2022/05/04 05:52:12;;;;;;;;;;;;;;;17.78;62.78;96918.09;4251230;27;5742;-66
2022/05/04 05:54:14;;;;;;;;;;;;;;;17.81;62.77;96924.81;4236383;28;5657;-66
2022/05/04 05:56:15;;;;;;;;;;;;;;;17.83;62.54;96936.91;4236781;28;5641;-66
2022/05/04 05:58:17;;;;;;;;;;;;;;;17.90;62.07;96924.22;4236556;28;5724;-66
2022/05/04 06:00:19;;;;;;;;;;;;;;;18.00;61.65;96927.09;4235824;28;5600;-66
2022/05/04 06:02:25;;;;;;;;;;;;;;;18.09;61.25;96924.84;4236806;28;5658;-66
2022/05/04 06:04:27;;;;;;;;;;;;;;;18.22;61.04;96929.13;4235715;28;5678;-66
2022/05/04 06:06:29;;;;;;;;;;;;;;;18.30;60.90;96920.72;4236933;28;5641;-66
2022/05/04 06:08:31;;;;;;;;;;;;;;;18.40;60.59;96925.44;4236610;28;6351;-66
2022/05/04 06:10:32;;;;;;;;;;;;;;;18.41;60.27;96927.88;4236911;28;5736;-65
2022/05/04 06:12:34;;;;;;;;;;;;;;;18.39;60.41;96924.63;4236460;28;5629;-66
2022/05/04 06:14:36;;;;;;;;;;;;;;;18.36;60.29;96930.47;4236694;28;6310;-66
2022/05/04 06:16:42;;;;;;;;;;;;;;;18.32;60.44;96926.63;4236636;28;5735;-66
2022/05/04 06:18:44;;;;;;;;;;;;;;;18.28;60.37;96928.19;4236446;28;5653;-67
2022/05/04 06:20:46;;;;;;;;;;;;;;;18.24;60.27;96927.03;4235404;27;5882;-68
2022/05/04 06:22:48;;;;;;;;;;;;;;;18.22;60.34;96929.94;4239696;27;7784;-67
2022/05/04 06:24:50;;;;;;;;;;;;;;;18.21;60.26;96936.31;4253106;27;5079;-68
2022/05/04 06:26:52;;;;;;;;;;;;;;;18.19;60.12;96934.94;4241420;27;5838;-68
2022/05/04 06:28:53;;;;;;;;;;;;;;;18.17;59.82;96934.38;4236059;27;5648;-68
2022/05/04 06:35:36;;;;;;;;;;;;;;;18.00;59.89;96936.97;4234881;28;5796;-68
2022/05/04 06:37:42;;;;;;;;;;;;;;;17.97;59.88;96938.25;4236399;28;5780;-68
2022/05/04 06:39:43;;;;;;;;;;;;;;;17.94;59.86;96941.41;4245666;27;5636;-68
2022/05/04 06:41:45;;;;;;;;;;;;;;;17.92;59.85;96935.50;4253078;27;6333;-68
2022/05/04 06:43:47;;;;;;;;;;;;;;;17.93;59.96;96947.81;4245838;27;5771;-68
2022/05/04 06:45:49;;;;;;;;;;;;;;;17.93;59.85;96952.34;4236011;28;5685;-68
2022/05/04 06:47:51;;;;;;;;;;;;;;;17.89;59.92;96951.19;4234050;27;5620;-67
2022/05/04 06:49:52;;;;;;;;;;;;;;;17.89;60.17;96952.00;4236202;28;5748;-67
2022/05/04 06:51:55;;;;;;;;;;;;;;;17.91;60.01;96957.13;4227681;28;5609;-67
2022/05/04 06:53:57;;;;;;;;;;;;;;;17.89;59.98;96951.19;4246094;27;5687;-67
2022/05/04 06:56:18;;;;;;;;;;;;;;;17.87;60.00;96959.44;4237311;27;5661;-67
2022/05/04 06:58:20;;;;;;;;;;;;;;;17.89;59.95;96957.34;4235570;28;5626;-67
2022/05/04 07:00:23;;;;;;;;;;;;;;;17.91;59.93;96955.28;4235615;27;5669;-67
2022/05/04 07:02:26;;;;;;;;;;;;;;;17.98;59.73;96957.78;4232743;27;5656;-67
2022/05/04 07:04:28;;;;;;;;;;;;;;;18.00;59.49;96956.50;4234072;27;5613;-69
2022/05/04 07:06:29;;;;;;;;;;;;;;;18.08;59.05;96949.16;4235616;28;5634;-71
2022/05/04 07:08:31;;;;;;;;;;;;;;;18.12;58.93;96953.00;4230024;27;5592;-70
2022/05/04 07:10:35;;;;;;;;;;;;;;;18.12;58.63;96950.31;4227815;28;5653;-71
2022/05/04 07:12:37;;;;;;;;;;;;;;;18.14;58.52;96953.59;4230773;28;5656;-72
2022/05/04 07:14:38;;;;;;;;;;;;;;;18.18;58.13;96949.38;4230069;28;5846;-74
2022/05/04 07:16:40;;;;;;;;;;;;;;;18.24;58.24;96956.47;4220307;28;5878;-71
2022/05/04 07:18:47;;;;;;;;;;;;;;;18.28;58.02;96955.75;4234849;28;5783;-71
2022/05/04 07:20:49;;;;;;;;;;;;;;;18.32;57.72;96951.53;4232472;28;5634;-78
2022/05/04 07:22:51;;;;;;;;;;;;;;;18.37;57.61;96956.19;4230145;28;5743;-70
2022/05/04 07:24:53;;;;;;;;;;;;;;;18.38;57.36;96947.09;4225116;27;5711;-69
2022/05/04 07:26:54;;;;;;;;;;;;;;;18.41;56.98;96953.84;4234208;27;5694;-71
2022/05/04 07:28:56;;;;;;;;;;;;;;;18.44;56.85;96962.19;4232760;28;5615;-70
2022/05/04 07:30:58;;;;;;;;;;;;;;;18.47;56.67;96951.03;4234109;28;5856;-75
2022/05/04 07:32:59;;;;;;;;;;;;;;;18.51;56.29;96952.16;4234680;28;6463;-74
2022/05/04 07:35:02;;;;;;;;;;;;;;;18.49;56.32;96954.28;4231768;28;5641;-77
2022/05/04 07:37:04;;;;;;;;;;;;;;;18.50;56.36;96953.22;4234717;28;6408;-77
2022/05/04 07:39:06;;;;;;;;;;;;;;;18.47;56.05;96959.06;4235475;28;5657;-68
2022/05/04 07:43:28;;;;;;;;;;;;;;;18.50;55.76;96947.06;4234155;28;5665;-71
2022/05/04 07:45:30;;;;;;;;;;;;;;;18.49;55.82;96940.09;4234084;27;5641;-68
2022/05/04 07:47:34;;;;;;;;;;;;;;;18.49;55.71;96946.25;4233760;28;5732;-70
2022/05/04 07:49:35;;;;;;;;;;;;;;;18.50;55.82;96941.69;4233819;28;6576;-73
2022/05/04 07:51:37;;;;;;;;;;;;;;;18.49;55.69;96942.75;4233318;28;5637;-72
2022/05/04 07:53:39;;;;;;;;;;;;;;;18.49;55.66;96948.13;4240837;27;5737;-73
2022/05/04 07:55:40;;;;;;;;;;;;;;;18.48;55.69;96949.16;4234531;27;5690;-74
2022/05/04 07:57:47;;;;;;;;;;;;;;;18.44;55.88;96946.13;4227908;28;5756;-73
2022/05/04 08:04:29;;;;;;;;;;;;;;;18.39;55.67;96945.25;4234335;27;5648;-73
2022/05/04 08:06:31;;;;;;;;;;;;;;;18.32;55.57;96943.50;4233338;28;5772;-73
2022/05/04 08:08:32;;;;;;;;;;;;;;;18.25;55.68;96934.81;4234393;28;5799;-73
2022/05/04 08:10:36;;;;;;;;;;;;;;;18.24;55.64;96951.13;4234288;28;5686;-73
2022/05/04 08:12:37;;;;;;;;;;;;;;;18.21;55.67;96948.91;4233619;28;5705;-74
2022/05/04 08:14:39;;;;;;;;;;;;;;;18.19;55.78;96946.47;4234305;27;5653;-74
2022/05/04 08:16:41;;;;;;;;;;;;;;;18.21;55.60;96947.03;4233964;28;5649;-73
2022/05/04 08:18:49;;;;;;;;;;;;;;;18.24;55.61;96949.25;4234626;27;5649;-73
2022/05/04 08:20:51;;;;;;;;;;;;;;;18.26;55.55;96949.00;4234212;28;5668;-73
2022/05/04 08:22:53;;;;;;;;;;;;;;;18.25;55.27;96950.88;4234302;28;5809;-73
2022/05/04 08:24:54;;;;;;;;;;;;;;;18.25;55.34;96944.72;4234254;28;5641;-73
2022/05/04 08:26:56;;;;;;;;;;;;;;;18.25;55.32;96950.06;4234191;28;5734;-74
2022/05/04 08:28:58;;;;;;;;;;;;;;;18.24;55.16;96940.41;4232452;28;5692;-73
2022/05/04 08:30:59;;;;;;;;;;;;;;;18.26;55.07;96943.66;4234173;27;5657;-73
2022/05/04 08:33:01;;;;;;;;;;;;;;;18.29;55.03;96944.00;4234074;28;5716;-74
2022/05/04 08:35:03;;;;;;;;;;;;;;;18.30;54.89;96942.94;4234312;28;5721;-74
2022/05/04 08:37:05;;;;;;;;;;;;;;;18.27;54.81;96939.94;4234204;28;5072;-74
2022/05/04 08:39:08;;;;;;;;;;;;;;;18.30;54.68;96934.09;4234001;28;5713;-74
2022/05/04 08:41:09;;;;;;;;;;;;;;;18.33;54.54;96938.97;4232724;28;5772;-74
2022/05/04 08:43:13;;;;;;;;;;;;;;;18.34;54.56;96937.91;4233876;28;5092;-73
2022/05/04 08:45:16;;;;;;;;;;;;;;;18.33;54.78;96933.63;4233014;28;5653;-74
2022/05/04 08:47:21;;;;;;;;;;;;;;;18.37;54.62;96942.81;4233911;28;5774;-74
2022/05/04 08:49:23;;;;;;;;;;;;;;;18.36;54.43;96938.50;4234365;28;5740;-73
2022/05/04 08:51:25;;;;;;;;;;;;;;;18.34;54.36;96932.56;4233689;28;5953;-73
2022/05/04 08:53:27;;;;;;;;;;;;;;;18.34;54.42;96937.91;4238671;27;5581;-74
2022/05/04 08:55:29;;;;;;;;;;;;;;;18.33;54.37;96936.28;4251069;27;5691;-73
2022/05/04 08:57:31;;;;;;;;;;;;;;;18.36;54.23;96935.84;4247011;27;6388;-73
2022/05/04 08:59:33;;;;;;;;;;;;;;;18.34;54.15;96932.56;4233190;28;5708;-74
2022/05/04 09:01:39;;;;;;;;;;;;;;;18.29;54.20;96930.59;4232567;28;5600;-73
2022/05/04 09:03:41;;;;;;;;;;;;;;;18.27;54.21;96932.72;4240835;27;5577;-73
2022/05/04 09:05:46;;;;;;;;;;;;;;;18.28;54.20;96931.66;4234158;28;5099;-73
2022/05/04 09:08:09;;;;;;;;;;;;;;;18.29;54.30;96930.59;4233926;27;5060;-74
2022/05/04 09:10:22;;;;;;;;;;;;;;;18.30;54.18;96934.91;4233988;28;5653;-73
2022/05/04 09:12:31;;;;;;;;;;;;;;;18.32;54.19;96932.81;4233078;28;5641;-73
2022/05/04 09:14:35;;;;;;;;;;;;;;;18.33;54.15;96931.75;4234148;28;5724;-73
2022/05/04 09:16:37;;;;;;;;;;;;;;;18.38;54.17;96936.41;4233498;28;5728;-73
2022/05/04 09:18:38;;;;;;;;;;;;;;;18.42;54.15;96936.72;4233719;28;5696;-74
2022/05/04 09:20:45;;;;;;;;;;;;;;;18.42;53.98;96934.84;4233455;28;5669;-74
2022/05/04 09:22:53;;;;;;;;;;;;;;;18.44;54.24;96943.47;4234018;28;5649;-74
2022/05/04 09:24:56;;;;;;;;;;;;;;;18.46;54.15;96949.41;4232841;28;6453;-74
2022/05/04 09:26:58;;;;;;;;;;;;;;;18.46;54.13;96941.38;4232718;28;5648;-73
2022/05/04 09:29:02;;;;;;;;;;;;;;;18.48;54.05;96943.81;4235806;27;5630;-74
2022/05/04 09:31:07;;;;;;;;;;;;;;;18.50;54.05;96939.03;4237027;28;5657;-74
2022/05/04 09:33:11;;;;;;;;;;;;;;;18.51;54.13;96941.47;4236928;28;6144;-74
2022/05/04 09:35:15;;;;;;;;;;;;;;;18.53;54.07;96942.03;4237204;28;5692;-74
2022/05/04 09:44:54;;;;;;;;;;;;;;;18.60;54.04;96933.88;4236974;28;5649;-74
2022/05/04 09:46:56;;;;;;;;;;;;;;;18.63;54.09;96936.84;4232977;27;5697;-74
2022/05/04 09:48:58;;;;;;;;;;;;;;;18.65;53.97;96938.50;4219228;28;5674;-74
2022/05/04 09:51:06;;;;;;;;;;;;;;;18.69;53.84;96932.44;4231917;27;5811;-73
2022/05/04 09:53:08;;;;;;;;;;;;;;;18.72;53.85;96928.47;4229824;27;5589;-74
2022/05/04 09:55:19;;;;;;;;;;;;;;;18.77;53.74;96929.38;4225487;27;5833;-73
2022/05/04 09:57:23;;;;;;;;;;;;;;;18.81;53.59;96927.03;4221533;27;5897;-74
2022/05/04 09:59:34;;;;;;;;;;;;;;;18.86;53.62;96921.75;4217691;28;5710;-73
2022/05/04 10:01:36;;;;;;;;;;;;;;;18.90;53.58;96925.56;4223270;27;5664;-73
2022/05/04 10:03:38;;;;;;;;;;;;;;;18.89;53.56;96921.25;4234837;27;5597;-73
2022/05/04 10:05:40;;;;;;;;;;;;;;;18.92;53.39;96918.13;4221616;27;5674;-74
2022/05/04 10:07:42;;;;;;;;;;;;;;;18.94;53.26;96921.34;4235272;27;5739;-74
2022/05/04 10:09:44;;;;;;;;;;;;;;;19.00;53.50;96920.38;4233769;27;6318;-74
2022/05/04 10:11:46;;;;;;;;;;;;;;;19.06;53.19;96914.06;4234711;27;5681;-74
2022/05/04 10:13:54;;;;;;;;;;;;;;;19.15;53.00;96917.13;4219056;28;5655;-74
2022/05/04 10:15:57;;;;;;;;;;;;;;;19.20;52.68;96918.00;4219090;27;5789;-74
2022/05/04 10:18:07;;;;;;;;;;;;;;;19.28;52.68;96922.16;4235735;27;5373;-74
2022/05/04 10:20:12;;;;;;;;;;;;;;;19.34;52.37;96925.72;4234732;28;7642;-74
2022/05/04 10:22:23;;;;;;;;;;;;;;;19.38;51.98;96929.56;4235532;27;5107;-74
2022/05/04 10:24:28;;;;;;;;;;;;;;;19.44;52.02;96924.00;4217403;28;5626;-74
2022/05/04 10:26:36;;;;;;;;;;;;;;;19.48;51.39;96921.66;4227492;27;5680;-73
2022/05/04 10:28:41;;;;;;;;;;;;;;;19.52;51.32;96925.47;4235322;28;5649;-69
2022/05/04 10:30:58;;;;;;;;;;;;;;;19.58;51.07;96921.81;4238541;27;5803;-73
2022/05/04 10:33:05;;;;;;;;;;;;;;;19.62;51.05;96925.63;4219075;28;6915;-73
2022/05/04 10:35:44;;;;;;;;;;;;;;;19.64;50.75;96920.84;4225753;27;5664;-70
2022/05/04 10:37:58;;;;;;;;;;;;;;;19.66;50.80;96921.38;4216485;27;5836;-70
2022/05/04 10:40:06;;;;;;;;;;;;;;;19.68;50.87;96924.63;4228507;27;5712;-69
2022/05/04 10:42:47;;;;;;;;;;;;;;;19.75;50.23;96919.09;4235533;27;5664;-70
2022/05/04 10:44:52;;;;;;;;;;;;;;;19.80;50.15;96918.34;4232364;27;5702;-70
2022/05/04 10:46:54;;;;;;;;;;;;;;;19.86;50.02;96912.00;4228396;27;5666;-70
2022/05/04 10:49:04;;;;;;;;;;;;;;;19.89;49.68;96914.19;4219112;28;5741;-73
2022/05/04 10:51:21;;;;;;;;;;;;;;;19.93;49.54;96901.88;4227392;28;5640;-79
2022/05/04 10:53:25;;;;;;;;;;;;;;;20.00;49.33;96902.50;4241177;27;5689;-71
2022/05/04 10:55:38;;;;;;;;;;;;;;;20.08;49.47;96894.03;4231698;27;5596;-67
2022/05/04 10:57:42;;;;;;;;;;;;;;;20.12;49.18;96897.81;4242153;27;5744;-68
2022/05/04 11:00:05;;;;;;;;;;;;;;;20.17;48.97;96903.25;4227843;27;5753;-77
2022/05/04 11:02:11;;;;;;;;;;;;;;;20.21;48.94;96890.94;4227524;27;5597;-67
2022/05/04 11:04:22;;;;;;;;;;;;;;;20.23;48.81;96898.75;4234858;27;5619;-74
2022/05/04 11:06:45;;;;;;;;;;;;;;;20.24;48.53;96895.00;4239310;27;5653;-74
2022/05/04 11:08:48;;;;;;;;;;;;;;;20.24;48.36;96892.31;4224496;28;5616;-77
2022/05/04 11:10:52;;;;;;;;;;;;;;;20.27;48.46;96895.31;4231532;27;5769;-79
2022/05/04 11:12:55;;;;;;;;;;;;;;;20.31;48.43;96907.16;4230861;27;5609;-77
2022/05/04 11:14:57;;;;;;;;;;;;;;;20.33;48.25;96905.03;4247487;27;5611;-72
2022/05/04 11:16:59;;;;;;;;;;;;;;;20.35;48.71;96900.22;4221654;28;5721;-73
2022/05/04 11:19:03;;;;;;;;;;;;;;;20.39;48.58;96900.53;4234602;28;5874;-72
2022/05/04 11:21:10;;;;;;;;;;;;;;;20.41;48.68;96897.59;4228704;28;5674;-72
2022/05/04 11:23:12;;;;;;;;;;;;;;;20.43;48.56;96898.19;4233930;28;5707;-82
2022/05/04 11:25:14;;;;;;;;;;;;;;;20.45;48.56;96899.53;4234602;28;5749;-79
2022/05/04 11:27:18;;;;;;;;;;;;;;;20.48;48.42;96898.22;4235362;27;5645;-74
2022/05/04 11:29:26;;;;;;;;;;;;;;;20.53;48.28;96901.78;4218450;28;5796;-74
2022/05/04 11:31:28;;;;;;;;;;;;;;;20.56;48.12;96893.22;4230355;27;5648;-69
2022/05/04 11:33:30;;;;;;;;;;;;;;;20.57;48.10;96896.72;4234302;27;5705;-68
2022/05/04 11:35:31;;;;;;;;;;;;;;;20.59;48.43;96892.69;4226243;28;5649;-73
2022/05/04 11:37:33;;;;;;;;;;;;;;;20.61;48.31;96895.13;4234738;28;5661;-70
2022/05/04 11:39:38;;;;;;;;;;;;;;;20.60;47.91;96891.63;4225367;27;5852;-72
2022/05/04 11:41:39;;;;;;;;;;;;;;;20.63;48.12;96890.34;4233867;27;5677;-71
2022/05/04 11:43:42;;;;;;;;;;;;;;;20.64;48.11;96879.34;4228837;27;5649;-79
2022/05/04 11:45:44;;;;;;;;;;;;;;;20.68;47.93;96884.19;4235156;27;5760;-78
2022/05/04 11:47:45;;;;;;;;;;;;;;;20.74;47.97;96881.31;4227480;27;7837;-66
2022/05/04 11:49:47;;;;;;;;;;;;;;;20.79;47.60;96872.47;4233782;27;5788;-72
2022/05/04 11:51:50;;;;;;;;;;;;;;;20.83;47.86;96878.94;4232823;28;5641;-73
2022/05/04 11:53:52;;;;;;;;;;;;;;;20.86;47.47;96873.88;4238784;27;5817;-73
2022/05/04 11:55:54;;;;;;;;;;;;;;;20.89;47.65;96865.31;4234580;27;5641;-71
2022/05/04 11:57:59;;;;;;;;;;;;;;;20.90;47.32;96858.03;4233418;28;5736;-76
2022/05/04 12:00:02;;;;;;;;;;;;;;;20.90;47.33;96858.03;4233607;27;5644;-79
2022/05/04 12:02:05;;;;;;;;;;;;;;;20.88;47.51;96862.88;4233926;27;5712;-73
2022/05/04 12:04:09;;;;;;;;;;;;;;;20.84;47.26;96859.91;4232618;27;5648;-73
2022/05/04 12:06:12;;;;;;;;;;;;;;;20.79;46.90;96861.72;4217675;28;6111;-69
2022/05/04 12:08:17;;;;;;;;;;;;;;;20.79;47.02;96862.53;4232153;27;5656;-75
2022/05/04 12:10:19;;;;;;;;;;;;;;;20.79;46.96;96854.47;4232360;28;5656;-74
2022/05/04 12:12:20;;;;;;;;;;;;;;;20.80;46.97;96858.78;4221031;27;5716;-72
2022/05/04 12:14:22;;;;;;;;;;;;;;;20.79;46.93;96862.53;4217522;28;5753;-68
2022/05/04 12:16:24;;;;;;;;;;;;;;;20.79;46.66;96859.84;4226800;27;5817;-74
2022/05/04 12:18:32;;;;;;;;;;;;;;;20.78;46.75;96860.91;4234215;27;5689;-77
2022/05/04 12:20:34;;;;;;;;;;;;;;;20.79;46.92;96856.34;4235580;27;5652;-77
2022/05/04 12:22:36;;;;;;;;;;;;;;;20.79;47.14;96862.53;4233221;27;5588;-77
2022/05/04 12:24:42;;;;;;;;;;;;;;;20.78;47.07;96852.84;4234743;27;5833;-77
2022/05/04 12:26:43;;;;;;;;;;;;;;;20.78;46.69;96858.22;4233537;28;7714;-76
2022/05/04 12:33:34;;;;;;;;;;;;;;;20.74;46.79;96857.13;4235046;28;6428;-76
2022/05/04 12:35:46;;;;;;;;;;;;;;;20.74;46.25;96859.00;4235575;28;5664;-77
2022/05/04 12:37:50;;;;;;;;;;;;;;;20.70;46.21;96856.00;4227706;27;5659;-77
2022/05/04 12:39:52;;;;;;;;;;;;;;;20.68;46.30;96866.19;4216551;28;5695;-76
2022/05/04 12:41:59;;;;;;;;;;;;;;;20.63;45.91;96871.53;4234321;27;5657;-76
2022/05/04 12:44:04;;;;;;;;;;;;;;;20.62;45.65;96875.28;4234199;28;5697;-76
2022/05/04 12:46:15;;;;;;;;;;;;;;;20.63;45.93;96866.16;4234732;28;5645;-76
2022/05/04 12:48:23;;;;;;;;;;;;;;;20.68;45.92;96870.75;4233466;27;5727;-74
2022/05/04 12:50:28;;;;;;;;;;;;;;;20.71;45.37;96873.72;4233877;27;6352;-74
2022/05/04 12:52:30;;;;;;;;;;;;;;;20.77;45.21;96871.91;4233141;28;5641;-74
2022/05/04 12:54:32;;;;;;;;;;;;;;;20.82;45.19;96869.25;4239326;27;5712;-73
2022/05/04 12:56:46;;;;;;;;;;;;;;;20.85;44.78;96874.13;4233398;28;5645;-71
2022/05/04 12:58:48;;;;;;;;;;;;;;;20.86;44.90;96868.50;4233103;28;5750;-71
2022/05/04 13:00:50;;;;;;;;;;;;;;;20.88;44.81;96865.56;4233869;28;5826;-70
2022/05/04 13:02:53;;;;;;;;;;;;;;;20.90;44.92;96868.78;4234295;28;5732;-71
2022/05/04 13:04:55;;;;;;;;;;;;;;;20.93;44.87;96869.09;4225463;27;5658;-71
2022/05/04 13:06:57;;;;;;;;;;;;;;;21.01;44.52;96875.06;4231367;28;5643;-71
2022/05/04 13:09:02;;;;;;;;;;;;;;;21.06;44.61;96864.34;4236054;28;5703;-71
2022/05/04 13:11:05;;;;;;;;;;;;;;;21.12;44.77;96872.19;4232396;28;5697;-71
2022/05/04 13:13:06;;;;;;;;;;;;;;;21.18;44.57;96862.28;4222230;28;5756;-71
2022/05/04 13:15:09;;;;;;;;;;;;;;;21.17;44.32;96868.72;4237219;28;5653;-72
2022/05/04 13:17:13;;;;;;;;;;;;;;;21.17;44.50;96860.66;4235840;28;5653;-72
2022/05/04 13:19:16;;;;;;;;;;;;;;;21.17;44.23;96863.34;4235736;28;5637;-72
2022/05/04 13:21:18;;;;;;;;;;;;;;;21.14;44.41;96864.66;4236951;27;5830;-68
2022/05/04 13:23:20;;;;;;;;;;;;;;;21.13;44.80;96867.63;4236788;28;5645;-69
2022/05/04 13:25:21;;;;;;;;;;;;;;;21.10;44.58;96874.31;4237292;28;5709;-69
2022/05/04 13:27:23;;;;;;;;;;;;;;;21.09;44.37;96872.72;4236932;28;5673;-69
2022/05/04 13:29:25;;;;;;;;;;;;;;;21.09;44.48;96866.53;4236885;28;5654;-70
2022/05/04 13:31:28;;;;;;;;;;;;;;;21.08;44.50;96879.16;4237079;28;5657;-74
2022/05/04 13:33:31;;;;;;;;;;;;;;;21.07;44.86;96874.03;4232878;27;5660;-74
2022/05/04 13:35:33;;;;;;;;;;;;;;;21.05;45.19;96870.78;4235261;28;6150;-77
2022/05/04 13:37:34;;;;;;;;;;;;;;;21.05;45.58;96860.84;4234120;27;5675;-77
2022/05/04 13:39:36;;;;;;;;;;;;;;;21.05;45.20;96860.03;4235903;28;5607;-79
2022/05/04 13:41:39;;;;;;;;;;;;;;;20.98;45.17;96857.56;4238064;27;5657;-80
2022/05/04 13:43:41;;;;;;;;;;;;;;;20.96;45.27;96857.03;4237325;27;5630;-80
2022/05/04 13:45:43;;;;;;;;;;;;;;;20.98;45.00;96852.19;4238168;28;5700;-79
2022/05/04 13:47:52;;;;;;;;;;;;;;;21.00;45.08;96858.13;4221497;28;5815;-79
2022/05/04 13:49:54;;;;;;;;;;;;;;;21.01;44.89;96848.19;4219738;28;5629;-79
2022/05/04 13:54:16;;;;;;;;;;;;;;;21.07;44.32;96845.28;4248588;27;5660;-78
2022/05/04 13:56:18;;;;;;;;;;;;;;;21.08;44.23;96848.78;4254198;27;5740;-77
2022/05/04 13:58:23;;;;;;;;;;;;;;;21.07;44.09;96841.78;4228228;27;5667;-78
2022/05/04 14:00:24;;;;;;;;;;;;;;;21.03;43.82;96841.47;4226680;27;5645;-78
2022/05/04 14:02:26;;;;;;;;;;;;;;;21.03;44.02;96837.97;4234624;27;7668;-78
2022/05/04 14:04:28;;;;;;;;;;;;;;;21.01;43.62;96840.13;4233255;27;5597;-78
2022/05/04 14:06:33;;;;;;;;;;;;;;;20.99;43.60;96840.38;4214813;28;5726;-75
2022/05/04 14:08:34;;;;;;;;;;;;;;;20.96;43.48;96834.72;4232002;27;5670;-72
2022/05/04 14:10:43;;;;;;;;;;;;;;;20.91;43.33;96827.41;4233286;27;5818;-72
2022/05/04 14:12:46;;;;;;;;;;;;;;;20.88;43.36;96834.13;4234645;27;5706;-72
2022/05/04 14:15:03;;;;;;;;;;;;;;;20.83;43.49;96831.38;4231767;27;5634;-71
2022/05/04 14:17:05;;;;;;;;;;;;;;;20.81;43.58;96822.78;4233840;27;5627;-72
2022/05/04 14:19:07;;;;;;;;;;;;;;;20.80;43.46;96826.53;4232890;27;5656;-73
2022/05/04 14:21:09;;;;;;;;;;;;;;;20.82;43.66;96820.91;4234467;27;6287;-72
2022/05/04 14:23:11;;;;;;;;;;;;;;;20.82;43.65;96824.38;4233402;27;5892;-71
2022/05/04 14:25:13;;;;;;;;;;;;;;;20.81;43.79;96821.97;4226181;27;6475;-71
2022/05/04 14:27:14;;;;;;;;;;;;;;;20.80;43.81;96826.53;4230979;27;5604;-72
2022/05/04 14:29:16;;;;;;;;;;;;;;;20.76;44.01;96822.75;4235504;27;6274;-72
2022/05/04 14:31:18;;;;;;;;;;;;;;;20.69;44.33;96826.72;4232310;27;6670;-72
2022/05/04 14:33:20;;;;;;;;;;;;;;;20.62;44.10;96826.94;4232570;27;5800;-71
2022/05/04 14:35:23;;;;;;;;;;;;;;;20.59;44.34;96830.13;4232257;28;5739;-72
2022/05/04 14:37:24;;;;;;;;;;;;;;;20.54;44.27;96830.09;4230026;27;5765;-72
2022/05/04 14:39:26;;;;;;;;;;;;;;;20.49;44.30;96830.03;4217577;28;5638;-71
2022/05/04 14:41:28;;;;;;;;;;;;;;;20.49;44.53;96836.19;4224113;28;5729;-71
2022/05/04 14:43:30;;;;;;;;;;;;;;;20.43;44.56;96825.69;4235662;28;5665;-72
2022/05/04 14:45:31;;;;;;;;;;;;;;;20.38;44.78;96830.97;4233884;27;5746;-72
2022/05/04 14:47:33;;;;;;;;;;;;;;;20.34;44.90;96833.34;4235187;27;5653;-72
2022/05/04 14:49:35;;;;;;;;;;;;;;;20.32;44.60;96822.88;4232014;27;5888;-72
2022/05/04 14:51:37;;;;;;;;;;;;;;;20.33;44.51;96827.19;4231015;27;5633;-72
2022/05/04 14:53:39;;;;;;;;;;;;;;;20.34;44.53;96826.13;4237572;27;5616;-72
2022/05/04 14:55:40;;;;;;;;;;;;;;;20.36;44.65;96826.66;4233000;28;5732;-72
2022/05/04 14:57:42;;;;;;;;;;;;;;;20.38;44.54;96817.53;4233951;28;5698;-72
2022/05/04 14:59:45;;;;;;;;;;;;;;;20.41;44.41;96817.06;4234516;28;5604;-71
2022/05/04 15:01:46;;;;;;;;;;;;;;;20.38;44.21;96821.03;4235573;28;5645;-72
2022/05/04 15:06:08;;;;;;;;;;;;;;;20.30;44.54;96821.50;4217960;27;5611;-72
2022/05/04 15:08:13;;;;;;;;;;;;;;;20.28;44.72;96821.78;4222757;27;5863;-72
2022/05/04 15:10:20;;;;;;;;;;;;;;;20.27;44.53;96817.47;4224933;27;5765;-70
2022/05/04 15:12:22;;;;;;;;;;;;;;;20.27;44.64;96827.38;4226131;27;5736;-70
2022/05/04 15:14:24;;;;;;;;;;;;;;;20.24;44.86;96815.28;4226040;27;5660;-70
2022/05/04 15:16:26;;;;;;;;;;;;;;;20.24;44.58;96820.63;4237722;27;5639;-71
2022/05/04 15:18:29;;;;;;;;;;;;;;;20.21;44.74;96818.47;4236006;27;5780;-71
2022/05/04 15:20:33;;;;;;;;;;;;;;;20.18;44.56;96827.03;4232728;27;5762;-71
2022/05/04 15:22:35;;;;;;;;;;;;;;;20.17;44.37;96822.75;4232068;27;5809;-70
2022/05/04 15:24:37;;;;;;;;;;;;;;;20.15;44.47;96819.47;4231038;27;5855;-70
2022/05/04 15:26:39;;;;;;;;;;;;;;;20.12;44.32;96814.63;4223805;27;5646;-71
2022/05/04 15:28:41;;;;;;;;;;;;;;;20.15;44.53;96810.59;4233962;27;6315;-71
2022/05/04 15:30:42;;;;;;;;;;;;;;;20.15;44.47;96811.41;4230514;27;5884;-71
2022/05/04 15:32:44;;;;;;;;;;;;;;;20.16;44.62;96813.06;4231052;28;5600;-69
2022/05/04 15:34:46;;;;;;;;;;;;;;;20.18;44.35;96807.44;4234844;27;5653;-69
2022/05/04 15:36:48;;;;;;;;;;;;;;;20.15;44.15;96803.38;4234949;28;5653;-69
2022/05/04 15:38:50;;;;;;;;;;;;;;;20.14;43.93;96796.38;4235057;28;5767;-69
2022/05/04 15:40:52;;;;;;;;;;;;;;;20.14;44.21;96800.94;4234931;27;5744;-70
2022/05/04 15:42:54;;;;;;;;;;;;;;;20.16;43.82;96802.34;4230476;28;5900;-70
2022/05/04 15:45:06;;;;;;;;;;;;;;;20.20;43.72;96800.75;4233614;27;5801;-70
2022/05/04 15:47:08;;;;;;;;;;;;;;;20.22;43.72;96803.97;4236983;27;5787;-70
2022/05/04 15:49:10;;;;;;;;;;;;;;;20.21;43.62;96807.72;4234922;27;5708;-70
2022/05/04 15:51:12;;;;;;;;;;;;;;;20.23;43.79;96804.78;4229353;27;5682;-71
2022/05/04 15:53:14;;;;;;;;;;;;;;;20.21;43.39;96809.63;4233810;27;5656;-70
2022/05/04 15:55:15;;;;;;;;;;;;;;;20.19;43.37;96804.50;4228176;27;5605;-69
2022/05/04 15:57:17;;;;;;;;;;;;;;;20.20;43.42;96810.69;4235318;27;5649;-70
2022/05/04 15:59:19;;;;;;;;;;;;;;;20.19;43.36;96807.19;4234398;27;5767;-70
2022/05/04 16:01:21;;;;;;;;;;;;;;;20.21;43.67;96812.28;4234958;27;5092;-69
2022/05/04 16:05:43;;;;;;;;;;;;;;;20.27;43.80;96808.59;4233269;27;5838;-70
2022/05/04 16:07:45;;;;;;;;;;;;;;;20.28;43.86;96802.97;4227795;27;5793;-70
2022/05/04 16:09:47;;;;;;;;;;;;;;;20.27;43.85;96801.38;4234403;27;5657;-70
2022/05/04 16:11:49;;;;;;;;;;;;;;;20.26;44.00;96802.41;4223004;27;5611;-70
2022/05/04 16:13:51;;;;;;;;;;;;;;;20.30;43.70;96808.91;4220655;28;5735;-70
2022/05/04 16:15:53;;;;;;;;;;;;;;;20.31;44.04;96802.47;4234806;27;5744;-71
2022/05/04 16:22:35;;;;;;;;;;;;;;;20.33;43.88;96811.06;4234865;28;5656;-70